Time;durP1;ratioP1;P1;durP2;ratioP2;P2;SDS_P1;SDS_P2;PMS_P1;PMS_P2;Temp;Humidity;BMP_temperature;BMP_pressure;BME280_temperature;BME280_humidity;BME280_pressure;Samples;Min_cycle;Max_cycle;Signal;HPM_P1;HPM_P2
2022/03/30 00:02:02;;;;;;;9.87;2.50;;;7.30;99.90;;;;;;5110591;28;20373;-56
2022/03/30 00:04:27;;;;;;;8.53;2.40;;;7.30;99.90;;;;;;5111820;28;20465;-56
2022/03/30 00:06:53;;;;;;;6.07;1.80;;;7.20;99.90;;;;;;5094504;28;20792;-56
2022/03/30 00:09:18;;;;;;;5.90;2.13;;;7.20;99.90;;;;;;5094666;28;20389;-54
2022/03/30 00:11:44;;;;;;;8.57;2.13;;;7.20;99.90;;;;;;5095164;28;20404;-57
2022/03/30 00:14:09;;;;;;;7.60;2.50;;;7.20;99.90;;;;;;5111975;28;20784;-58
2022/03/30 00:16:35;;;;;;;7.57;2.40;;;7.30;99.90;;;;;;5094153;28;20403;-57
2022/03/30 00:19:02;;;;;;;11.87;2.43;;;7.30;99.90;;;;;;5094069;28;20380;-55
2022/03/30 00:21:28;;;;;;;6.35;1.90;;;7.30;99.90;;;;;;5093237;28;20395;-58
2022/03/30 00:23:53;;;;;;;8.35;2.40;;;7.30;99.90;;;;;;5094284;28;20383;-58
2022/03/30 00:26:19;;;;;;;9.83;2.20;;;7.30;99.90;;;;;;5112648;28;20395;-57
2022/03/30 00:28:45;;;;;;;9.20;2.07;;;7.30;99.90;;;;;;5094127;28;20430;-56
2022/03/30 00:31:12;;;;;;;10.27;2.67;;;7.30;99.90;;;;;;5092604;28;20827;-59
2022/03/30 00:33:37;;;;;;;7.28;1.80;;;7.30;99.90;;;;;;5091587;28;20880;-58
2022/03/30 00:36:04;;;;;;;5.65;1.95;;;7.20;99.90;;;;;;5095276;28;20839;-55
2022/03/30 00:38:29;;;;;;;9.87;2.27;;;7.20;99.90;;;;;;5093900;28;20438;-58
2022/03/30 00:40:55;;;;;;;7.27;2.13;;;7.20;99.90;;;;;;5113936;28;20399;-59
2022/03/30 00:43:21;;;;;;;7.27;2.50;;;7.10;99.90;;;;;;5096391;28;20384;-57
2022/03/30 00:45:46;;;;;;;8.07;2.30;;;7.10;99.90;;;;;;5097870;28;20388;-55
2022/03/30 00:48:12;;;;;;;8.50;2.25;;;7.10;99.90;;;;;;5097472;28;20810;-59
2022/03/30 00:50:38;;;;;;;7.90;2.22;;;7.10;99.90;;;;;;5099143;28;20457;-58
2022/03/30 00:53:04;;;;;;;8.27;2.15;;;7.10;99.90;;;;;;5099741;28;20424;-58
2022/03/30 00:55:30;;;;;;;13.32;2.22;;;7.10;99.90;;;;;;5098063;28;20408;-59
2022/03/30 00:57:57;;;;;;;8.43;2.25;;;7.10;99.90;;;;;;5097479;28;20687;-58
2022/03/30 01:00:24;;;;;;;7.57;1.95;;;7.10;99.90;;;;;;5115230;28;20407;-56
2022/03/30 01:02:51;;;;;;;7.90;2.23;;;7.10;99.90;;;;;;5097457;28;20384;-56
2022/03/30 01:05:17;;;;;;;7.73;2.30;;;7.10;99.90;;;;;;5097646;28;20391;-58
2022/03/30 01:07:43;;;;;;;6.22;1.90;;;7.20;99.90;;;;;;5114503;28;20373;-55
2022/03/30 01:10:10;;;;;;;7.47;1.90;;;7.20;99.90;;;;;;5096486;28;20384;-55
2022/03/30 01:12:39;;;;;;;4.95;2.05;;;7.20;99.90;;;;;;5114697;28;20392;-57
2022/03/30 01:15:10;;;;;;;8.63;2.40;;;7.20;99.90;;;;;;5097190;28;20377;-56
2022/03/30 01:17:37;;;;;;;5.03;1.95;;;7.20;99.90;;;;;;5098378;28;20402;-57
2022/03/30 01:20:04;;;;;;;8.25;2.05;;;7.30;99.90;;;;;;5097924;28;20419;-56
2022/03/30 01:22:30;;;;;;;6.80;2.00;;;7.30;99.90;;;;;;5115062;28;20418;-56
2022/03/30 01:24:55;;;;;;;7.07;2.10;;;7.30;99.90;;;;;;5099438;28;20384;-55
2022/03/30 01:27:21;;;;;;;6.47;2.07;;;7.30;99.90;;;;;;5098985;28;20393;-58
2022/03/30 01:32:30;;;;;;;9.55;2.30;;;7.20;99.90;;;;;;5115183;28;20707;-54
2022/03/30 01:35:00;;;;;;;4.80;2.00;;;7.20;99.90;;;;;;5097179;28;20479;-57
2022/03/30 01:37:28;;;;;;;7.80;2.17;;;7.20;99.90;;;;;;5096878;28;20486;-58
2022/03/30 01:39:58;;;;;;;7.32;2.00;;;7.10;99.90;;;;;;5098336;28;20398;-58
2022/03/30 01:42:24;;;;;;;6.88;2.38;;;7.10;99.90;;;;;;5116139;28;20372;-55
2022/03/30 01:44:50;;;;;;;8.17;1.97;;;7.10;99.90;;;;;;5115504;28;20376;-50
2022/03/30 01:47:16;;;;;;;7.17;2.03;;;7.20;99.90;;;;;;5100533;28;20388;-52
2022/03/30 01:49:42;;;;;;;8.20;1.92;;;7.20;99.90;;;;;;5099068;28;20756;-58
2022/03/30 01:52:08;;;;;;;7.33;1.93;;;7.30;99.90;;;;;;5117388;28;20406;-58
2022/03/30 01:54:37;;;;;;;4.63;1.77;;;7.20;99.90;;;;;;5100094;28;20753;-56
2022/03/30 01:57:03;;;;;;;4.95;1.60;;;7.20;99.90;;;;;;5117291;28;20411;-59
2022/03/30 01:59:29;;;;;;;5.50;1.95;;;7.20;99.90;;;;;;5099006;28;20571;-58
2022/03/30 02:01:55;;;;;;;6.70;2.20;;;7.20;99.90;;;;;;5116927;28;20392;-57
2022/03/30 02:04:21;;;;;;;5.00;1.77;;;7.20;99.90;;;;;;5099029;28;20463;-57
2022/03/30 02:06:46;;;;;;;5.60;1.83;;;7.20;99.90;;;;;;5099058;28;20445;-58
2022/03/30 02:09:12;;;;;;;5.13;1.67;;;7.20;99.90;;;;;;5097751;28;20388;-56
2022/03/30 02:11:38;;;;;;;8.38;2.35;;;7.20;99.90;;;;;;5096638;28;20399;-56
2022/03/30 02:14:04;;;;;;;8.10;1.98;;;7.20;99.90;;;;;;5096528;28;20396;-59
2022/03/30 02:16:31;;;;;;;6.78;1.80;;;7.10;99.90;;;;;;5097584;28;20408;-57
2022/03/30 02:18:57;;;;;;;8.02;1.92;;;7.10;99.90;;;;;;5097006;28;20772;-58
2022/03/30 02:21:24;;;;;;;7.57;2.28;;;7.10;99.90;;;;;;5097693;28;20379;-57
2022/03/30 02:23:50;;;;;;;5.97;1.73;;;7.10;99.90;;;;;;5097178;28;20380;-60
2022/03/30 02:26:16;;;;;;;9.73;2.15;;;7.00;99.90;;;;;;5115532;28;20392;-59
2022/03/30 02:28:43;;;;;;;6.37;1.90;;;7.00;99.90;;;;;;5095745;28;20385;-59
2022/03/30 02:31:12;;;;;;;8.95;2.20;;;6.90;99.90;;;;;;5096667;28;20449;-59
2022/03/30 02:33:38;;;;;;;7.03;2.00;;;7.00;99.90;;;;;;5096653;28;20388;-57
2022/03/30 02:36:04;;;;;;;5.27;1.60;;;7.00;99.90;;;;;;5114490;28;20671;-58
2022/03/30 02:38:30;;;;;;;5.40;1.90;;;7.00;99.90;;;;;;5095208;28;20679;-57
2022/03/30 02:40:56;;;;;;;5.22;2.08;;;7.00;99.90;;;;;;5114060;28;20869;-60
2022/03/30 02:43:22;;;;;;;6.40;1.95;;;7.00;99.90;;;;;;5115704;28;20392;-57
2022/03/30 02:45:49;;;;;;;6.45;1.83;;;7.00;99.90;;;;;;5098862;28;20808;-59
2022/03/30 02:48:22;;;;;;;5.38;1.92;;;7.10;99.90;;;;;;5115779;28;20453;-58
2022/03/30 02:50:54;;;;;;;6.00;1.65;;;7.10;99.90;;;;;;5097717;28;20380;-59
2022/03/30 02:53:20;;;;;;;7.18;2.20;;;7.20;99.90;;;;;;5098104;28;20795;-58
2022/03/30 02:55:46;;;;;;;9.95;1.80;;;7.20;99.90;;;;;;5098821;28;20502;-57
2022/03/30 02:58:12;;;;;;;6.97;1.70;;;7.10;99.90;;;;;;5115027;28;20445;-60
2022/03/30 03:00:39;;;;;;;7.47;2.13;;;7.10;99.90;;;;;;5097444;28;20384;-58
2022/03/30 03:03:05;;;;;;;6.25;1.67;;;7.00;99.90;;;;;;5115205;28;20377;-59
2022/03/30 03:05:34;;;;;;;5.72;1.73;;;7.00;99.90;;;;;;5097706;28;20376;-58
2022/03/30 03:08:07;;;;;;;5.32;1.70;;;6.90;99.90;;;;;;5095577;28;20388;-57
2022/03/30 03:10:36;;;;;;;7.72;1.60;;;7.00;99.90;;;;;;5112973;28;20388;-60
2022/03/30 03:13:05;;;;;;;8.07;2.30;;;7.00;99.90;;;;;;5096231;28;20388;-55
2022/03/30 03:15:32;;;;;;;5.13;1.80;;;6.90;99.90;;;;;;5096153;28;20395;-55
2022/03/30 03:17:58;;;;;;;7.55;1.70;;;6.90;99.90;;;;;;5096495;28;20388;-58
2022/03/30 03:20:24;;;;;;;6.40;2.20;;;6.90;99.90;;;;;;5095959;28;20371;-57
2022/03/30 03:22:50;;;;;;;5.43;1.80;;;6.80;99.90;;;;;;5098884;28;20384;-58
2022/03/30 03:25:16;;;;;;;6.83;1.87;;;6.80;99.90;;;;;;5097715;28;20396;-59
2022/03/30 03:27:41;;;;;;;6.23;1.90;;;6.80;99.90;;;;;;5116629;28;20380;-59
2022/03/30 03:30:08;;;;;;;3.80;1.57;;;6.70;99.90;;;;;;5097616;28;20369;-58
2022/03/30 03:32:34;;;;;;;5.07;1.90;;;6.80;99.90;;;;;;5096063;28;20529;-58
2022/03/30 03:34:59;;;;;;;5.57;1.75;;;6.70;99.90;;;;;;5094802;28;20483;-56
2022/03/30 03:37:25;;;;;;;4.53;1.83;;;6.80;99.90;;;;;;5094699;28;20419;-57
2022/03/30 03:39:51;;;;;;;6.28;2.00;;;6.80;99.90;;;;;;5111874;28;20445;-58
2022/03/30 03:42:17;;;;;;;6.78;1.88;;;6.80;99.90;;;;;;5113497;28;20395;-53
2022/03/30 03:44:43;;;;;;;6.82;1.60;;;6.80;99.90;;;;;;5113398;28;20810;-58
2022/03/30 03:47:12;;;;;;;7.43;1.55;;;6.80;99.90;;;;;;5112655;28;20380;-58
2022/03/30 03:49:37;;;;;;;6.43;1.75;;;6.80;99.90;;;;;;5095612;28;20384;-55
2022/03/30 03:52:04;;;;;;;4.45;1.20;;;6.70;99.90;;;;;;5114432;28;20404;-53
2022/03/30 03:54:30;;;;;;;3.78;1.15;;;6.70;99.90;;;;;;5113062;28;20632;-59
2022/03/30 03:56:57;;;;;;;4.75;1.20;;;6.70;99.90;;;;;;5111524;28;20854;-58
2022/03/30 03:59:23;;;;;;;5.53;1.63;;;6.70;99.90;;;;;;5094463;28;20775;-57
2022/03/30 04:01:49;;;;;;;3.83;1.25;;;6.60;99.90;;;;;;5112180;28;20384;-56
2022/03/30 04:04:15;;;;;;;2.67;1.02;;;6.60;99.90;;;;;;5110704;28;20373;-59
2022/03/30 04:06:41;;;;;;;4.88;1.30;;;6.60;99.90;;;;;;5094941;28;20403;-57
2022/03/30 04:09:06;;;;;;;5.50;1.55;;;6.60;99.90;;;;;;5096275;28;20776;-58
2022/03/30 04:11:32;;;;;;;3.77;1.57;;;6.60;99.90;;;;;;5097388;28;20461;-57
2022/03/30 04:13:57;;;;;;;5.20;1.50;;;6.60;99.90;;;;;;5096934;28;20395;-58
2022/03/30 04:16:23;;;;;;;5.90;1.70;;;6.60;99.90;;;;;;5096478;28;20408;-59
2022/03/30 04:18:48;;;;;;;3.73;1.50;;;6.50;99.90;;;;;;5097912;28;20860;-53
2022/03/30 04:21:14;;;;;;;5.43;1.60;;;6.50;99.90;;;;;;5115439;28;20741;-59
2022/03/30 04:23:40;;;;;;;7.35;2.00;;;6.50;99.90;;;;;;5097690;28;20392;-57
2022/03/30 04:26:08;;;;;;;5.82;1.90;;;6.40;99.90;;;;;;5114847;28;20393;-59
2022/03/30 04:28:35;;;;;;;7.23;1.87;;;6.40;99.90;;;;;;5112659;28;20408;-58
2022/03/30 04:31:00;;;;;;;4.80;1.60;;;6.40;99.90;;;;;;5112495;28;20380;-59
2022/03/30 04:33:26;;;;;;;6.47;1.57;;;6.40;99.90;;;;;;5095474;28;20449;-59
2022/03/30 04:35:51;;;;;;;8.00;1.70;;;6.40;99.90;;;;;;5093658;28;20408;-59
2022/03/30 04:38:17;;;;;;;5.17;1.57;;;6.40;99.90;;;;;;5094673;28;20385;-59
2022/03/30 04:40:42;;;;;;;4.80;1.33;;;6.40;99.90;;;;;;5095329;28;20399;-58
2022/03/30 04:43:08;;;;;;;4.90;1.33;;;6.40;99.90;;;;;;5094419;28;20734;-58
2022/03/30 04:45:33;;;;;;;4.67;1.30;;;6.40;99.90;;;;;;5096822;28;20384;-58
2022/03/30 04:47:59;;;;;;;4.20;1.27;;;6.40;99.90;;;;;;5097584;28;20452;-57
2022/03/30 04:50:26;;;;;;;4.75;1.27;;;6.30;99.90;;;;;;5115030;28;20376;-58
2022/03/30 04:52:52;;;;;;;4.22;1.45;;;6.20;99.90;;;;;;5096089;28;20615;-59
2022/03/30 04:55:19;;;;;;;3.77;1.53;;;6.20;99.90;;;;;;5114859;28;20395;-57
2022/03/30 04:57:44;;;;;;;4.25;1.25;;;6.30;99.90;;;;;;5096250;28;20436;-58
2022/03/30 05:00:11;;;;;;;4.17;1.50;;;6.30;99.90;;;;;;5095642;28;20394;-55
2022/03/30 05:02:37;;;;;;;5.70;1.60;;;6.30;99.90;;;;;;5094729;28;20826;-60
2022/03/30 05:05:04;;;;;;;4.57;1.20;;;6.40;99.90;;;;;;5095284;28;20892;-58
2022/03/30 05:07:32;;;;;;;3.43;1.30;;;6.30;99.90;;;;;;5094728;28;20386;-58
2022/03/30 05:09:59;;;;;;;5.00;1.30;;;6.30;99.90;;;;;;5093747;28;20421;-59
2022/03/30 05:12:24;;;;;;;4.43;1.45;;;6.30;99.90;;;;;;5091789;28;20684;-60
2022/03/30 05:14:50;;;;;;;5.75;1.45;;;6.30;99.90;;;;;;5090776;28;20772;-59
2022/03/30 05:17:16;;;;;;;5.90;1.60;;;6.30;99.90;;;;;;5111196;28;20396;-59
2022/03/30 05:19:44;;;;;;;7.37;1.90;;;6.30;99.90;;;;;;5112645;28;20460;-57
2022/03/30 05:22:10;;;;;;;5.28;1.30;;;6.30;99.90;;;;;;5093895;28;20380;-55
2022/03/30 05:24:37;;;;;;;4.95;1.60;;;6.20;99.90;;;;;;5112326;28;20416;-59
2022/03/30 05:27:03;;;;;;;4.40;1.33;;;6.20;99.90;;;;;;5094247;28;20669;-53
2022/03/30 05:29:29;;;;;;;4.60;1.60;;;6.20;99.90;;;;;;5093510;28;20518;-57
2022/03/30 05:31:55;;;;;;;3.88;1.30;;;6.30;99.90;;;;;;5094975;28;20487;-58
2022/03/30 05:34:20;;;;;;;5.25;1.60;;;6.20;99.90;;;;;;5094817;28;20380;-59
2022/03/30 05:36:46;;;;;;;3.80;1.50;;;6.20;99.90;;;;;;5092076;28;20492;-59
2022/03/30 05:39:12;;;;;;;5.95;1.58;;;6.10;99.90;;;;;;5091932;28;20451;-59
2022/03/30 05:41:37;;;;;;;6.20;1.67;;;6.10;99.90;;;;;;5091011;28;20649;-59
2022/03/30 05:44:03;;;;;;;4.80;1.50;;;6.00;99.90;;;;;;5108190;28;20679;-61
2022/03/30 05:46:29;;;;;;;5.20;1.77;;;6.00;99.90;;;;;;5089778;28;20780;-57
2022/03/30 05:48:55;;;;;;;7.87;1.70;;;6.00;99.90;;;;;;5091056;28;20391;-59
2022/03/30 05:51:20;;;;;;;5.23;1.47;;;6.00;99.90;;;;;;5088609;28;20491;-57
2022/03/30 05:53:47;;;;;;;5.03;1.85;;;6.00;99.90;;;;;;5093442;28;20396;-58
2022/03/30 05:56:12;;;;;;;3.55;1.70;;;6.10;99.90;;;;;;5112537;28;20415;-54
2022/03/30 05:58:38;;;;;;;4.43;1.60;;;6.10;99.90;;;;;;5096000;28;20392;-58
2022/03/30 06:01:04;;;;;;;5.20;1.63;;;6.10;99.90;;;;;;5110866;28;20376;-57
2022/03/30 06:03:30;;;;;;;4.80;1.50;;;6.10;99.90;;;;;;5109946;28;20373;-59
2022/03/30 06:05:55;;;;;;;5.80;1.77;;;6.10;99.90;;;;;;5090099;28;20436;-57
2022/03/30 06:08:21;;;;;;;5.03;1.83;;;6.10;99.90;;;;;;5091216;28;20664;-55
2022/03/30 06:10:47;;;;;;;3.83;1.40;;;6.20;99.90;;;;;;5090929;28;20427;-56
2022/03/30 06:13:12;;;;;;;5.00;1.83;;;6.20;99.90;;;;;;5090370;28;20445;-57
2022/03/30 06:15:39;;;;;;;5.07;1.65;;;6.20;99.90;;;;;;5107153;28;20642;-59
2022/03/30 06:18:10;;;;;;;6.07;1.70;;;6.20;99.90;;;;;;5089082;28;20694;-55
2022/03/30 06:20:37;;;;;;;7.03;2.00;;;6.20;99.90;;;;;;5105443;28;20403;-56
2022/03/30 06:23:03;;;;;;;4.35;1.73;;;6.20;99.90;;;;;;5086705;28;20776;-57
2022/03/30 06:25:28;;;;;;;2.42;1.27;;;6.20;99.90;;;;;;5090391;28;20395;-57
2022/03/30 06:27:54;;;;;;;4.35;1.58;;;6.20;99.90;;;;;;5109399;28;20381;-57
2022/03/30 06:30:20;;;;;;;5.47;1.77;;;6.30;99.90;;;;;;5091355;28;20664;-54
2022/03/30 06:32:49;;;;;;;5.00;1.73;;;6.30;99.90;;;;;;5091387;28;20718;-58
2022/03/30 06:35:16;;;;;;;7.40;1.80;;;6.30;99.90;;;;;;5089246;28;20388;-56
2022/03/30 06:37:42;;;;;;;6.18;1.80;;;6.20;99.90;;;;;;5088874;28;20385;-56
2022/03/30 06:40:08;;;;;;;5.57;1.90;;;6.20;99.90;;;;;;5088583;28;20613;-57
2022/03/30 06:42:34;;;;;;;4.05;1.50;;;6.20;99.90;;;;;;5087849;28;20541;-58
2022/03/30 06:45:00;;;;;;;5.47;1.60;;;6.20;99.90;;;;;;5089115;28;20368;-58
2022/03/30 06:47:25;;;;;;;4.28;1.73;;;6.20;99.90;;;;;;5087694;28;20747;-59
2022/03/30 06:49:51;;;;;;;4.35;1.33;;;6.20;99.90;;;;;;5089154;28;20376;-58
2022/03/30 06:52:17;;;;;;;4.18;2.03;;;6.30;99.90;;;;;;5087280;28;20380;-59
2022/03/30 06:54:43;;;;;;;7.53;1.90;;;6.30;99.90;;;;;;5087153;28;20389;-59
2022/03/30 06:57:09;;;;;;;3.90;1.73;;;6.30;99.90;;;;;;5089015;28;20392;-59
2022/03/30 06:59:34;;;;;;;5.57;1.50;;;6.30;99.90;;;;;;5088195;28;20392;-58
2022/03/30 07:02:00;;;;;;;6.07;1.77;;;6.20;99.90;;;;;;5087957;28;20429;-59
2022/03/30 07:04:26;;;;;;;3.97;1.50;;;6.20;99.90;;;;;;5088863;28;20407;-58
2022/03/30 07:12:20;;;;;;;4.32;1.73;;;6.30;99.90;;;;;;5107000;28;20456;-58
2022/03/30 07:14:46;;;;;;;5.43;1.50;;;6.30;99.90;;;;;;5089290;28;20471;-59
2022/03/30 07:17:13;;;;;;;3.60;1.48;;;6.20;99.90;;;;;;5105088;28;20792;-58
2022/03/30 07:19:40;;;;;;;4.30;1.40;;;6.30;99.90;;;;;;5085665;28;20512;-58
2022/03/30 07:22:09;;;;;;;4.03;1.63;;;6.30;99.90;;;;;;5085370;28;20867;-57
2022/03/30 07:24:35;;;;;;;3.75;1.27;;;6.30;99.90;;;;;;5085642;28;20460;-56
2022/03/30 07:27:01;;;;;;;3.75;1.30;;;6.30;99.90;;;;;;5085791;28;20622;-57
2022/03/30 07:29:26;;;;;;;4.70;1.92;;;6.30;99.90;;;;;;5104106;28;20392;-58
2022/03/30 07:31:52;;;;;;;3.27;1.27;;;6.40;99.90;;;;;;5086221;28;20376;-58
2022/03/30 07:34:17;;;;;;;5.33;1.70;;;6.40;99.90;;;;;;5087553;28;20388;-58
2022/03/30 07:36:43;;;;;;;3.63;1.30;;;6.40;99.90;;;;;;5088534;28;20416;-55
2022/03/30 07:39:09;;;;;;;6.05;1.63;;;6.40;99.90;;;;;;5087572;28;20380;-57
2022/03/30 07:41:35;;;;;;;5.47;1.83;;;6.40;99.90;;;;;;5089614;28;20399;-55
2022/03/30 07:44:00;;;;;;;3.95;1.35;;;6.40;99.90;;;;;;5087729;28;20376;-56
2022/03/30 07:46:26;;;;;;;4.55;1.60;;;6.40;99.90;;;;;;5086452;28;20569;-56
2022/03/30 07:48:52;;;;;;;4.07;1.60;;;6.50;99.90;;;;;;5086273;28;20384;-55
2022/03/30 07:51:17;;;;;;;3.67;1.40;;;6.40;99.90;;;;;;5104414;28;20649;-56
2022/03/30 07:53:43;;;;;;;4.20;1.23;;;6.50;99.90;;;;;;5085665;28;20394;-56
2022/03/30 07:56:08;;;;;;;4.38;1.50;;;6.50;99.90;;;;;;5103660;28;20676;-54
2022/03/30 07:58:34;;;;;;;2.72;1.42;;;6.50;99.90;;;;;;5103679;28;20443;-57
2022/03/30 08:00:59;;;;;;;6.20;1.40;;;6.60;99.90;;;;;;5101168;28;20386;-58
2022/03/30 08:03:25;;;;;;;3.67;1.70;;;6.60;99.90;;;;;;5083940;28;20566;-57
2022/03/30 08:05:50;;;;;;;3.88;1.33;;;6.60;99.90;;;;;;5100484;28;20463;-55
2022/03/30 08:08:16;;;;;;;4.40;1.33;;;6.60;99.90;;;;;;5099865;28;20469;-58
2022/03/30 08:10:41;;;;;;;3.20;1.40;;;6.60;99.90;;;;;;5101890;28;20493;-55
2022/03/30 08:13:07;;;;;;;3.67;1.50;;;6.60;99.90;;;;;;5089994;28;20404;-57
2022/03/30 08:15:35;;;;;;;4.20;1.58;;;6.60;99.90;;;;;;5087581;28;20686;-55
2022/03/30 08:18:00;;;;;;;4.07;1.40;;;6.70;99.90;;;;;;5088335;28;20579;-53
2022/03/30 08:23:10;;;;;;;3.45;1.50;;;6.80;99.90;;;;;;5103824;28;20376;-57
2022/03/30 08:25:36;;;;;;;3.50;1.40;;;6.90;99.90;;;;;;5107272;28;20380;-55
2022/03/30 08:28:03;;;;;;;2.67;1.20;;;6.90;99.90;;;;;;5089114;28;20385;-57
2022/03/30 08:30:29;;;;;;;4.13;1.33;;;7.00;99.90;;;;;;5086613;28;20801;-53
2022/03/30 08:32:54;;;;;;;4.37;1.60;;;7.00;99.90;;;;;;5108100;28;20468;-56
2022/03/30 08:35:21;;;;;;;2.88;1.70;;;7.10;99.90;;;;;;5107446;28;20423;-53
2022/03/30 08:37:48;;;;;;;4.85;1.92;;;7.10;99.90;;;;;;5109642;28;20388;-55
2022/03/30 08:40:14;;;;;;;3.72;1.42;;;7.00;99.90;;;;;;5091504;28;20415;-57
2022/03/30 08:42:41;;;;;;;4.18;1.65;;;7.00;99.90;;;;;;5109658;28;20380;-58
2022/03/30 08:45:09;;;;;;;3.25;1.50;;;7.00;99.90;;;;;;5093441;28;20395;-57
2022/03/30 08:47:36;;;;;;;4.43;1.80;;;7.00;99.90;;;;;;5112903;28;20722;-56
2022/03/30 08:50:05;;;;;;;4.22;1.80;;;7.00;99.90;;;;;;5108876;28;20875;-58
2022/03/30 08:52:32;;;;;;;4.10;1.83;;;7.00;99.90;;;;;;5109456;28;20395;-56
2022/03/30 08:54:59;;;;;;;4.15;1.60;;;7.00;99.90;;;;;;5093200;28;20384;-57
2022/03/30 08:57:26;;;;;;;4.45;1.58;;;6.90;99.90;;;;;;5113733;28;20406;-58
2022/03/30 09:00:31;;;;;;;4.13;1.75;;;6.90;99.90;;;;;;5095051;28;20441;-55
2022/03/30 09:03:01;;;;;;;3.28;1.73;;;6.90;99.90;;;;;;4993881;28;20389;-56
2022/03/30 09:05:33;;;;;;;3.93;1.80;;;6.90;99.90;;;;;;5079790;28;20441;-54
2022/03/30 09:08:20;;;;;;;3.20;1.52;;;6.90;99.90;;;;;;5079715;28;20930;-58
2022/03/30 09:10:50;;;;;;;5.55;2.00;;;7.00;99.90;;;;;;5095475;28;20372;-58
2022/03/30 09:13:17;;;;;;;4.55;1.77;;;6.90;99.90;;;;;;5095735;28;20432;-57
2022/03/30 09:15:46;;;;;;;3.80;1.60;;;7.00;99.90;;;;;;5094689;28;20502;-58
2022/03/30 09:18:17;;;;;;;3.90;1.90;;;7.00;99.90;;;;;;5077032;28;20460;-58
2022/03/30 09:20:54;;;;;;;4.13;2.22;;;7.10;99.90;;;;;;5089502;28;20411;-56
2022/03/30 09:23:20;;;;;;;5.40;2.53;;;7.10;99.90;;;;;;5090231;28;20567;-55
2022/03/30 09:25:47;;;;;;;6.37;2.50;;;7.20;99.90;;;;;;5089799;28;20454;-57
2022/03/30 09:28:16;;;;;;;5.97;2.58;;;7.30;99.90;;;;;;5090039;28;20467;-58
2022/03/30 09:30:42;;;;;;;5.22;2.53;;;7.20;99.90;;;;;;5089855;28;20380;-58
2022/03/30 09:33:10;;;;;;;4.90;2.97;;;7.30;99.90;;;;;;5089699;28;20380;-55
2022/03/30 09:35:38;;;;;;;6.30;3.03;;;7.30;99.90;;;;;;5108048;28;20547;-56
2022/03/30 09:38:08;;;;;;;5.60;3.25;;;7.30;99.90;;;;;;5092153;28;20397;-58
2022/03/30 09:40:53;;;;;;;5.38;3.15;;;7.30;99.90;;;;;;5091285;28;20373;-56
2022/03/30 09:43:20;;;;;;;7.85;3.05;;;7.30;99.90;;;;;;5092567;28;20384;-58
2022/03/30 09:45:47;;;;;;;4.97;2.70;;;7.30;99.90;;;;;;5108248;28;20480;-57
2022/03/30 09:48:21;;;;;;;3.92;2.60;;;7.30;99.90;;;;;;5108789;28;20888;-58
2022/03/30 09:50:55;;;;;;;5.10;2.17;;;7.30;99.90;;;;;;5089641;28;20971;-57
2022/03/30 09:53:27;;;;;;;3.28;1.70;;;7.40;99.90;;;;;;5109928;28;20989;-55
2022/03/30 09:56:07;;;;;;;4.13;1.70;;;7.40;99.90;;;;;;5108335;28;20396;-55
2022/03/30 09:58:36;;;;;;;3.33;1.30;;;7.40;99.90;;;;;;5089144;28;20792;-57
2022/03/30 10:01:10;;;;;;;3.92;1.40;;;7.30;99.90;;;;;;5089982;28;20502;-54
2022/03/30 10:03:57;;;;;;;2.10;1.05;;;7.30;99.90;;;;;;5090635;28;20841;-58
2022/03/30 10:06:40;;;;;;;3.80;1.50;;;7.30;99.90;;;;;;5088181;28;20411;-53
2022/03/30 10:09:06;;;;;;;3.08;1.40;;;7.30;99.90;;;;;;5105757;28;20380;-57
2022/03/30 10:11:31;;;;;;;3.10;1.40;;;7.40;99.90;;;;;;5088811;28;20453;-56
2022/03/30 10:13:59;;;;;;;4.22;1.30;;;7.50;99.90;;;;;;5106674;28;20699;-58
2022/03/30 10:16:27;;;;;;;1.58;0.90;;;7.50;99.90;;;;;;5088758;28;20404;-58
2022/03/30 10:18:53;;;;;;;3.80;1.40;;;7.50;99.90;;;;;;5087099;28;20376;-56
2022/03/30 10:21:33;;;;;;;2.40;1.40;;;7.60;99.90;;;;;;5106664;28;20391;-56
2022/03/30 10:24:34;;;;;;;2.40;1.10;;;7.60;99.90;;;;;;5107377;28;20372;-53
2022/03/30 10:27:12;;;;;;;3.63;1.27;;;7.70;99.90;;;;;;5107457;28;20384;-58
2022/03/30 10:29:46;;;;;;;5.57;1.73;;;7.70;99.90;;;;;;5089204;28;20480;-56
2022/03/30 10:32:23;;;;;;;2.45;1.60;;;7.70;99.90;;;;;;5089356;28;20381;-53
2022/03/30 10:35:00;;;;;;;3.15;1.50;;;7.60;99.90;;;;;;5088622;28;20423;-57
2022/03/30 10:37:29;;;;;;;2.15;1.38;;;7.60;99.90;;;;;;5088790;28;20412;-56
2022/03/30 10:40:03;;;;;;;4.10;1.70;;;7.70;99.90;;;;;;5085943;28;20447;-57
2022/03/30 10:42:53;;;;;;;3.53;1.77;;;7.60;99.90;;;;;;5085438;28;20379;-58
2022/03/30 10:45:44;;;;;;;3.20;1.43;;;7.70;99.90;;;;;;5102761;28;20796;-57
2022/03/30 10:48:37;;;;;;;2.67;1.10;;;7.80;99.90;;;;;;5103760;28;20641;-54
2022/03/30 10:51:13;;;;;;;3.20;1.83;;;7.90;99.90;;;;;;5087497;28;20396;-59
2022/03/30 10:53:46;;;;;;;1.45;1.10;;;7.90;99.90;;;;;;5089005;28;20380;-58
2022/03/30 10:56:24;;;;;;;1.88;1.00;;;8.10;99.90;;;;;;5104900;28;20400;-56
2022/03/30 10:58:53;;;;;;;2.50;1.10;;;8.10;99.90;;;;;;5092925;28;20448;-58
2022/03/30 11:01:35;;;;;;;2.37;1.20;;;8.20;99.90;;;;;;5093727;28;21145;-58
2022/03/30 11:04:20;;;;;;;2.03;1.17;;;8.20;99.90;;;;;;5094033;28;20387;-58
2022/03/30 11:07:07;;;;;;;1.60;0.90;;;8.30;99.90;;;;;;5094054;28;20824;-58
2022/03/30 11:09:35;;;;;;;1.90;0.85;;;8.30;99.90;;;;;;5093178;28;20391;-58
2022/03/30 11:12:12;;;;;;;2.05;1.17;;;8.40;99.90;;;;;;5095302;28;20383;-57
2022/03/30 11:14:47;;;;;;;1.70;1.08;;;8.40;99.90;;;;;;5074501;28;20389;-58
2022/03/30 11:17:30;;;;;;;3.20;1.10;;;8.40;99.90;;;;;;5072042;28;20401;-59
2022/03/30 11:20:01;;;;;;;1.83;0.97;;;8.20;99.90;;;;;;5055884;28;20382;-55
2022/03/30 11:22:32;;;;;;;1.88;0.90;;;8.30;99.90;;;;;;5071675;28;20935;-57
2022/03/30 11:25:19;;;;;;;2.28;0.95;;;8.30;99.90;;;;;;5089794;28;20378;-58
2022/03/30 11:28:05;;;;;;;1.20;0.90;;;8.30;99.90;;;;;;5090235;28;20378;-57
2022/03/30 11:30:37;;;;;;;0.93;0.75;;;8.20;99.90;;;;;;5070913;28;20390;-54
2022/03/30 11:33:12;;;;;;;2.30;1.20;;;8.30;99.90;;;;;;5055540;28;20382;-57
2022/03/30 11:35:43;;;;;;;2.47;0.85;;;8.40;99.90;;;;;;5076297;28;20442;-55
2022/03/30 11:38:27;;;;;;;1.60;1.00;;;8.40;99.90;;;;;;5070595;28;21290;-57
2022/03/30 11:41:12;;;;;;;1.85;1.10;;;8.40;99.90;;;;;;5070672;28;20813;-58
2022/03/30 11:46:32;;;;;;;1.40;0.80;;;8.50;99.90;;;;;;5108796;28;20993;-57
2022/03/30 11:49:04;;;;;;;1.77;0.85;;;8.50;99.90;;;;;;5092624;28;21023;-57
2022/03/30 11:51:32;;;;;;;1.80;1.00;;;8.50;99.90;;;;;;5110488;28;20436;-57
2022/03/30 11:54:19;;;;;;;1.98;1.00;;;8.50;99.90;;;;;;5107770;28;20380;-57
2022/03/30 11:56:50;;;;;;;2.05;1.05;;;8.50;99.90;;;;;;5089391;28;20408;-57
2022/03/30 11:59:19;;;;;;;3.30;1.25;;;8.40;99.90;;;;;;5109341;28;20396;-56
2022/03/30 12:01:46;;;;;;;2.87;1.10;;;8.30;99.90;;;;;;5092084;28;20482;-57
2022/03/30 12:04:13;;;;;;;1.77;0.97;;;8.30;99.90;;;;;;5093149;28;20385;-59
2022/03/30 12:06:48;;;;;;;3.67;1.20;;;8.40;99.90;;;;;;5109996;28;20391;-59
2022/03/30 12:09:15;;;;;;;2.50;0.90;;;8.50;99.90;;;;;;5109682;28;20840;-58
2022/03/30 12:11:41;;;;;;;2.67;1.00;;;8.40;99.90;;;;;;5090866;28;21160;-59
2022/03/30 12:14:11;;;;;;;1.60;1.00;;;8.50;99.90;;;;;;5091690;28;20479;-59
2022/03/30 12:16:38;;;;;;;3.03;1.10;;;8.50;99.90;;;;;;5091505;28;20396;-58
2022/03/30 12:19:05;;;;;;;1.90;1.02;;;8.60;99.90;;;;;;5091297;28;20380;-59
2022/03/30 12:21:34;;;;;;;2.35;1.30;;;8.50;99.90;;;;;;5106094;28;20429;-59
2022/03/30 12:24:07;;;;;;;1.83;0.85;;;8.50;99.90;;;;;;5088456;28;20384;-58
2022/03/30 12:26:34;;;;;;;2.30;0.98;;;8.50;99.90;;;;;;5106800;28;20384;-59
2022/03/30 12:29:15;;;;;;;0.98;0.77;;;8.60;99.90;;;;;;5110358;28;20444;-59
2022/03/30 12:31:52;;;;;;;2.42;0.90;;;8.60;99.90;;;;;;5095654;28;20380;-56
2022/03/30 12:34:23;;;;;;;2.17;1.13;;;8.60;99.90;;;;;;5096692;28;20376;-57
2022/03/30 12:36:58;;;;;;;2.97;1.45;;;8.70;99.90;;;;;;5094751;28;20475;-56
2022/03/30 12:39:33;;;;;;;3.05;1.27;;;8.70;99.90;;;;;;5112381;28;20372;-58
2022/03/30 12:42:00;;;;;;;2.67;1.08;;;8.60;99.90;;;;;;5109042;28;20700;-58
2022/03/30 12:44:28;;;;;;;2.00;1.20;;;8.50;99.90;;;;;;5087019;28;20433;-55
2022/03/30 12:46:55;;;;;;;1.92;0.80;;;8.50;99.90;;;;;;5087521;28;20400;-56
2022/03/30 12:49:32;;;;;;;1.70;1.00;;;8.70;99.90;;;;;;5088403;28;20378;-59
2022/03/30 12:52:32;;;;;;;1.20;0.93;;;8.80;99.90;;;;;;5086164;28;20392;-55
2022/03/30 12:55:17;;;;;;;2.17;1.00;;;8.90;99.90;;;;;;5085745;28;20377;-58
2022/03/30 12:57:53;;;;;;;1.23;0.80;;;9.00;99.90;;;;;;5084965;28;21036;-56
2022/03/30 13:00:22;;;;;;;2.28;1.20;;;9.10;99.90;;;;;;5088102;28;20410;-58
2022/03/30 13:03:00;;;;;;;1.13;0.80;;;9.10;99.90;;;;;;5088875;28;20382;-56
2022/03/30 13:05:27;;;;;;;2.08;1.10;;;9.00;99.90;;;;;;5088986;28;20466;-59
2022/03/30 13:07:52;;;;;;;1.90;1.10;;;9.00;99.90;;;;;;5075597;28;20435;-58
2022/03/30 13:10:19;;;;;;;2.10;1.10;;;9.00;99.90;;;;;;5066113;28;20795;-56
2022/03/30 13:12:55;;;;;;;1.10;0.97;;;9.00;99.90;;;;;;5066991;28;20410;-57
2022/03/30 13:15:22;;;;;;;1.60;1.05;;;9.10;99.90;;;;;;5068598;28;20426;-56
2022/03/30 13:18:03;;;;;;;1.80;1.08;;;9.20;99.90;;;;;;5066770;28;20494;-57
2022/03/30 13:20:37;;;;;;;2.58;1.25;;;9.20;99.90;;;;;;5071103;28;20394;-57